Terminal Aerodrome Forecast
Issued by NWS

Home | Current Version | Previous Version | Text Only | Print | Product List | Glossary On
Versions: 1 2 3 4 5 6 7 8 9 10 11 12
794
FTUS42 TJSJ 061720
TAFKPK
TAF
TKPK 061720Z 0618/0718 07010KT P6SM SCT019
     FM062200 08007KT P6SM FEW022
     FM071300 07012KT P6SM VCSH SCT020=

USA.gov is the U.S. government's official web portal to all federal, state and local government web resources and services.